Andersonburg, Pennsylvania
Current Conditions -  °F | °C
As of 7:24 PM on Sunday 25 Jan 2015 (Local Time) from KCXY Reporting Station
Light Rain Light Rain  
Wind Chill:   Ceiling: 1400
Heat Index:   Visibility: 6mi
Dew Point:   Wind: 5mph
Humidity: 89%   Direction: 60°ENE
Pressure: 29.88"   Gusts: NA
Location:  40.3674°N, 77.4381°W
Report Text: KCXY 260024Z 06004KT 6SM -RA BR OVC014 03/01 A2988 RMK AO2 P0001 T00280011
Loading
Personal Weather Stations






























Interactive Weather Map New forecast layout! Learn more

10-Day Weather Forecast

Advertisements
Track Severe Weather on mobile